Time;durP1;ratioP1;P1;durP2;ratioP2;P2;SDS_P1;SDS_P2;PMS_P1;PMS_P2;Temp;Humidity;BMP_temperature;BMP_pressure;BME280_temperature;BME280_humidity;BME280_pressure;Samples;Min_cycle;Max_cycle;Signal;HPM_P1;HPM_P2
2022/06/19 00:02:28;;;;;;;0.90;0.80;;;;;;;;;;4931618;29;20238;-84
2022/06/19 00:04:57;;;;;;;3.13;1.23;;;;;;;;;;4947041;28;20230;-85
2022/06/19 00:07:27;;;;;;;1.00;1.00;;;;;;;;;;4918115;29;20236;-85
2022/06/19 00:10:00;;;;;;;0.60;0.60;;;;;;;;;;4919071;29;20205;-90
2022/06/19 00:12:28;;;;;;;1.10;0.97;;;;;;;;;;4938161;29;20223;-87
2022/06/19 00:14:57;;;;;;;0.70;0.67;;;;;;;;;;4953583;28;20334;-85
2022/06/19 00:17:25;;;;;;;3.30;1.57;;;;;;;;;;4937774;29;20206;-88
2022/06/19 00:19:54;;;;;;;0.93;0.90;;;;;;;;;;4927090;29;20300;-81
2022/06/19 00:22:22;;;;;;;2.97;0.90;;;;;;;;;;4938520;29;21670;-83
2022/06/19 00:24:50;;;;;;;2.30;1.10;;;;;;;;;;4933818;29;20236;-81
2022/06/19 00:27:20;;;;;;;1.60;0.93;;;;;;;;;;4965606;28;20229;-81
2022/06/19 00:29:49;;;;;;;5.17;1.30;;;;;;;;;;4945360;29;20213;-81
2022/06/19 00:32:18;;;;;;;4.13;1.60;;;;;;;;;;4924981;29;20205;-81
2022/06/19 00:34:47;;;;;;;3.00;2.33;;;;;;;;;;4938580;29;20209;-81
2022/06/19 00:37:15;;;;;;;1.23;1.03;;;;;;;;;;4925121;29;20206;-81
2022/06/19 00:39:44;;;;;;;0.57;0.57;;;;;;;;;;4956827;28;20229;-81
2022/06/19 00:42:14;;;;;;;0.90;0.90;;;;;;;;;;4957185;28;20252;-81
2022/06/19 00:44:44;;;;;;;3.17;3.03;;;;;;;;;;4969839;28;20228;-81
2022/06/19 00:47:17;;;;;;;6.00;1.50;;;;;;;;;;4946416;29;20217;-81
2022/06/19 00:49:49;;;;;;;3.13;1.70;;;;;;;;;;4943883;29;20209;-81
2022/06/19 00:52:20;;;;;;;2.10;1.13;;;;;;;;;;4938610;29;20218;-81
2022/06/19 00:54:50;;;;;;;1.53;1.03;;;;;;;;;;4936978;29;20205;-81
2022/06/19 00:57:23;;;;;;;2.40;1.40;;;;;;;;;;4955759;28;20206;-81
2022/06/19 00:59:53;;;;;;;4.50;1.33;;;;;;;;;;4936403;29;20217;-81
2022/06/19 01:02:22;;;;;;;2.80;1.10;;;;;;;;;;4943409;29;20264;-82
2022/06/19 01:04:51;;;;;;;1.80;1.00;;;;;;;;;;4933683;29;20212;-81
2022/06/19 01:07:21;;;;;;;6.70;2.87;;;;;;;;;;4933792;29;20234;-81
2022/06/19 01:09:50;;;;;;;2.93;1.73;;;;;;;;;;4928842;29;20202;-81
2022/06/19 01:12:19;;;;;;;8.90;2.50;;;;;;;;;;4953407;28;20198;-81
2022/06/19 01:14:48;;;;;;;6.43;2.17;;;;;;;;;;4953228;29;20219;-81
2022/06/19 01:17:18;;;;;;;6.13;1.70;;;;;;;;;;4959742;28;20207;-81
2022/06/19 01:19:47;;;;;;;6.30;1.33;;;;;;;;;;4933437;29;20304;-81
2022/06/19 01:22:19;;;;;;;9.23;1.67;;;;;;;;;;4940792;29;20194;-81
2022/06/19 01:25:00;;;;;;;2.90;1.50;;;;;;;;;;4953377;28;20211;-81
2022/06/19 01:30:15;;;;;;;8.90;1.93;;;;;;;;;;4944379;29;20206;-81
2022/06/19 01:32:46;;;;;;;9.67;2.77;;;;;;;;;;4953642;28;20225;-81
2022/06/19 01:35:15;;;;;;;9.17;2.50;;;;;;;;;;4949263;29;20225;-81
2022/06/19 01:37:44;;;;;;;3.13;1.60;;;;;;;;;;4935916;29;20202;-81
2022/06/19 01:40:17;;;;;;;2.13;1.57;;;;;;;;;;4944394;29;20202;-81
2022/06/19 01:42:45;;;;;;;6.67;1.90;;;;;;;;;;4939922;29;20198;-81
2022/06/19 01:45:14;;;;;;;8.40;1.53;;;;;;;;;;4944018;29;20219;-81
2022/06/19 01:47:43;;;;;;;1.83;1.37;;;;;;;;;;4938291;29;20221;-81
2022/06/19 01:50:13;;;;;;;3.60;1.60;;;;;;;;;;4929586;29;20289;-81
2022/06/19 01:52:41;;;;;;;4.67;1.30;;;;;;;;;;4940607;29;20209;-81
2022/06/19 01:55:12;;;;;;;2.83;1.20;;;;;;;;;;4949931;29;20217;-81
2022/06/19 01:57:44;;;;;;;2.63;1.13;;;;;;;;;;4953101;28;20295;-81
2022/06/19 02:00:14;;;;;;;3.20;1.37;;;;;;;;;;4940270;29;20209;-81
2022/06/19 02:02:44;;;;;;;1.33;1.23;;;;;;;;;;4940199;29;20239;-81
2022/06/19 02:05:13;;;;;;;4.30;2.10;;;;;;;;;;4914390;29;20241;-81
2022/06/19 02:07:41;;;;;;;3.50;1.10;;;;;;;;;;4927957;29;20218;-81
2022/06/19 02:10:10;;;;;;;2.53;1.87;;;;;;;;;;4939011;29;20214;-81
2022/06/19 02:12:38;;;;;;;8.50;2.50;;;;;;;;;;4947854;29;20228;-81
2022/06/19 02:15:10;;;;;;;7.87;2.13;;;;;;;;;;4956904;29;20210;-81
2022/06/19 02:17:42;;;;;;;9.00;2.30;;;;;;;;;;4931133;29;20234;-81
2022/06/19 02:20:12;;;;;;;8.13;2.30;;;;;;;;;;4950129;29;20210;-81
2022/06/19 02:22:40;;;;;;;3.80;1.10;;;;;;;;;;4929482;29;20284;-81
2022/06/19 02:25:10;;;;;;;2.73;1.53;;;;;;;;;;4954441;29;20252;-81
2022/06/19 02:27:39;;;;;;;3.47;1.40;;;;;;;;;;4937489;29;20301;-81
2022/06/19 02:30:09;;;;;;;0.90;0.90;;;;;;;;;;4934323;29;20228;-81
2022/06/19 02:32:39;;;;;;;2.40;0.93;;;;;;;;;;4952543;29;20261;-82
2022/06/19 02:35:08;;;;;;;26.23;3.67;;;;;;;;;;4965527;28;20264;-81
2022/06/19 02:37:39;;;;;;;4.97;1.67;;;;;;;;;;4929095;29;20205;-82
2022/06/19 02:40:14;;;;;;;6.87;2.57;;;;;;;;;;4939725;29;20220;-81
2022/06/19 02:42:43;;;;;;;6.77;2.23;;;;;;;;;;4922779;29;20208;-81
2022/06/19 02:45:14;;;;;;;3.87;2.23;;;;;;;;;;4920654;29;20225;-81
2022/06/19 02:47:43;;;;;;;5.90;1.43;;;;;;;;;;4965393;28;20229;-81
2022/06/19 02:50:26;;;;;;;12.90;3.33;;;;;;;;;;4952298;28;20241;-82
2022/06/19 02:52:55;;;;;;;2.67;1.80;;;;;;;;;;4952331;28;20200;-83
2022/06/19 02:55:24;;;;;;;5.33;1.67;;;;;;;;;;4951865;28;20207;-83
2022/06/19 02:57:52;;;;;;;5.57;1.53;;;;;;;;;;4924731;29;20185;-83
2022/06/19 03:00:24;;;;;;;3.37;1.70;;;;;;;;;;4945564;29;20213;-82
2022/06/19 03:02:55;;;;;;;3.90;1.37;;;;;;;;;;4935537;29;20239;-82
2022/06/19 03:05:25;;;;;;;2.30;0.83;;;;;;;;;;4952012;29;20192;-83
2022/06/19 03:07:53;;;;;;;4.80;1.50;;;;;;;;;;4920157;29;20221;-82
2022/06/19 03:10:22;;;;;;;0.80;0.80;;;;;;;;;;4935637;29;20196;-83
2022/06/19 03:12:51;;;;;;;6.60;2.47;;;;;;;;;;4936992;29;20265;-82
2022/06/19 03:15:19;;;;;;;1.37;1.27;;;;;;;;;;4965293;28;20203;-83
2022/06/19 03:17:49;;;;;;;2.23;1.50;;;;;;;;;;4930515;29;20219;-83
2022/06/19 03:20:19;;;;;;;8.50;1.67;;;;;;;;;;4938685;29;20295;-83
2022/06/19 03:22:47;;;;;;;7.13;1.90;;;;;;;;;;4938968;29;20209;-83
2022/06/19 03:25:16;;;;;;;0.60;0.60;;;;;;;;;;4923250;29;20212;-83
2022/06/19 03:27:44;;;;;;;0.90;0.90;;;;;;;;;;4935630;29;20440;-83
2022/06/19 03:30:13;;;;;;;2.63;1.10;;;;;;;;;;4920646;29;20205;-83
2022/06/19 03:32:41;;;;;;;3.67;2.07;;;;;;;;;;4938901;29;20293;-82
2022/06/19 03:35:11;;;;;;;1.60;1.13;;;;;;;;;;4925194;29;20213;-82
2022/06/19 03:37:40;;;;;;;3.93;1.40;;;;;;;;;;4938311;28;20260;-83
2022/06/19 03:40:09;;;;;;;3.10;1.33;;;;;;;;;;4948523;29;20206;-80
2022/06/19 03:42:37;;;;;;;5.27;2.40;;;;;;;;;;4933484;29;20410;-81
2022/06/19 03:45:07;;;;;;;1.17;1.07;;;;;;;;;;4936363;29;20216;-81
2022/06/19 03:47:35;;;;;;;5.40;1.83;;;;;;;;;;4950605;28;20211;-80
2022/06/19 03:50:04;;;;;;;1.43;1.30;;;;;;;;;;4946320;29;20226;-83
2022/06/19 03:52:34;;;;;;;1.10;1.00;;;;;;;;;;4938867;29;20212;-81
2022/06/19 03:55:02;;;;;;;3.37;3.10;;;;;;;;;;4944223;29;20337;-81
2022/06/19 03:57:31;;;;;;;5.83;1.27;;;;;;;;;;4954574;29;20207;-81
2022/06/19 03:59:59;;;;;;;11.60;2.67;;;;;;;;;;4938188;29;20204;-81
2022/06/19 04:02:27;;;;;;;3.13;2.00;;;;;;;;;;4924353;29;20249;-81
2022/06/19 04:04:56;;;;;;;1.73;1.20;;;;;;;;;;4942676;29;20225;-82
2022/06/19 04:07:24;;;;;;;3.07;1.13;;;;;;;;;;4925269;29;20212;-82
2022/06/19 04:09:59;;;;;;;2.33;0.80;;;;;;;;;;4953932;29;20233;-82
2022/06/19 04:12:28;;;;;;;2.67;1.50;;;;;;;;;;4929687;29;20220;-82
2022/06/19 04:14:56;;;;;;;4.50;2.50;;;;;;;;;;4919268;29;20213;-81
2022/06/19 04:17:24;;;;;;;27.87;3.50;;;;;;;;;;4950822;28;20215;-82
2022/06/19 04:19:53;;;;;;;2.23;1.87;;;;;;;;;;4935683;29;20233;-81
2022/06/19 04:22:21;;;;;;;5.10;2.27;;;;;;;;;;4935677;29;20205;-82
2022/06/19 04:24:50;;;;;;;0.90;0.90;;;;;;;;;;4948170;29;20200;-82
2022/06/19 04:27:20;;;;;;;4.53;2.13;;;;;;;;;;4919507;29;20296;-81
2022/06/19 04:29:49;;;;;;;0.60;0.60;;;;;;;;;;4930104;29;20263;-81
2022/06/19 04:32:17;;;;;;;1.17;1.07;;;;;;;;;;4933849;29;20287;-81
2022/06/19 04:34:46;;;;;;;1.10;1.10;;;;;;;;;;4960969;28;20206;-81
2022/06/19 04:37:14;;;;;;;4.13;2.20;;;;;;;;;;4921578;29;20222;-81
2022/06/19 04:39:43;;;;;;;3.30;1.27;;;;;;;;;;4944438;29;20201;-81
2022/06/19 04:42:11;;;;;;;5.87;1.23;;;;;;;;;;4922836;29;20221;-81
2022/06/19 04:44:41;;;;;;;2.97;1.20;;;;;;;;;;4935578;29;20233;-81
2022/06/19 04:47:09;;;;;;;2.77;1.83;;;;;;;;;;4919037;29;20217;-81
2022/06/19 04:49:38;;;;;;;2.90;1.23;;;;;;;;;;4919263;29;20248;-82
2022/06/19 04:52:06;;;;;;;1.90;1.33;;;;;;;;;;4936117;29;20213;-81
2022/06/19 04:54:35;;;;;;;3.40;1.10;;;;;;;;;;4924542;29;20216;-81
2022/06/19 04:57:04;;;;;;;1.10;0.90;;;;;;;;;;4943378;29;20233;-81
2022/06/19 04:59:32;;;;;;;0.80;0.80;;;;;;;;;;4934073;29;20265;-81
2022/06/19 05:02:02;;;;;;;1.70;1.07;;;;;;;;;;4948625;28;20235;-81
2022/06/19 05:04:30;;;;;;;3.93;1.67;;;;;;;;;;4924493;29;20209;-81
2022/06/19 05:06:59;;;;;;;10.37;1.63;;;;;;;;;;4922215;29;20213;-82
2022/06/19 05:09:28;;;;;;;3.87;0.80;;;;;;;;;;4955964;29;20226;-82
2022/06/19 05:11:56;;;;;;;2.83;1.10;;;;;;;;;;4957351;29;20209;-81
2022/06/19 05:14:25;;;;;;;0.40;0.40;;;;;;;;;;4930383;29;20209;-81
2022/06/19 05:16:53;;;;;;;1.00;1.00;;;;;;;;;;4942245;29;20261;-81
2022/06/19 05:19:23;;;;;;;3.20;1.80;;;;;;;;;;4931932;29;20209;-81
2022/06/19 05:21:51;;;;;;;2.40;1.03;;;;;;;;;;4953607;29;20289;-81
2022/06/19 05:24:20;;;;;;;3.63;1.37;;;;;;;;;;4932709;29;20226;-81
2022/06/19 05:26:50;;;;;;;1.97;1.83;;;;;;;;;;4952180;29;20201;-81
2022/06/19 05:29:18;;;;;;;1.50;1.40;;;;;;;;;;4937915;29;20216;-81
2022/06/19 05:31:47;;;;;;;8.07;2.20;;;;;;;;;;4939235;29;20210;-81
2022/06/19 05:34:15;;;;;;;1.10;0.73;;;;;;;;;;4953846;29;20257;-81
2022/06/19 05:36:46;;;;;;;3.43;2.10;;;;;;;;;;4951178;29;20275;-82
2022/06/19 05:39:15;;;;;;;1.40;1.27;;;;;;;;;;4944605;29;20196;-81
2022/06/19 05:41:43;;;;;;;5.37;1.10;;;;;;;;;;4940782;29;20198;-82
2022/06/19 05:44:12;;;;;;;3.13;1.60;;;;;;;;;;4940763;29;20240;-81
2022/06/19 05:46:41;;;;;;;2.17;1.17;;;;;;;;;;4930342;29;20207;-81
2022/06/19 05:49:10;;;;;;;3.93;0.80;;;;;;;;;;4924229;29;20350;-81
2022/06/19 05:51:38;;;;;;;0.83;0.80;;;;;;;;;;4948376;29;20226;-81
2022/06/19 05:54:08;;;;;;;0.97;0.93;;;;;;;;;;4937336;29;20206;-81
2022/06/19 05:56:37;;;;;;;1.70;1.10;;;;;;;;;;4961384;28;20248;-81
2022/06/19 05:59:05;;;;;;;0.40;0.40;;;;;;;;;;4939645;29;20240;-81
2022/06/19 06:01:34;;;;;;;2.80;2.60;;;;;;;;;;4952732;28;20205;-81
2022/06/19 06:04:02;;;;;;;2.17;2.07;;;;;;;;;;4938464;29;20216;-81
2022/06/19 06:06:32;;;;;;;3.13;1.80;;;;;;;;;;4924874;29;20221;-81
2022/06/19 06:09:00;;;;;;;2.70;1.23;;;;;;;;;;4938047;29;20217;-81
2022/06/19 06:11:30;;;;;;;11.27;2.40;;;;;;;;;;4949033;29;20221;-81
2022/06/19 06:13:58;;;;;;;2.73;0.87;;;;;;;;;;4921079;29;20225;-81
2022/06/19 06:16:27;;;;;;;0.70;0.70;;;;;;;;;;4934511;29;20208;-81
2022/06/19 06:18:55;;;;;;;2.37;1.70;;;;;;;;;;4939897;29;20210;-81
2022/06/19 06:21:25;;;;;;;2.43;1.70;;;;;;;;;;4927763;29;20280;-82
2022/06/19 06:23:55;;;;;;;3.93;1.73;;;;;;;;;;4921065;29;20206;-81
2022/06/19 06:26:24;;;;;;;1.20;1.10;;;;;;;;;;4936787;29;20206;-82
2022/06/19 06:28:55;;;;;;;2.80;1.90;;;;;;;;;;4949928;29;20210;-81
2022/06/19 06:31:24;;;;;;;2.07;1.97;;;;;;;;;;4936900;29;20252;-81
2022/06/19 06:33:57;;;;;;;1.13;0.67;;;;;;;;;;4956214;28;20221;-81
2022/06/19 06:36:25;;;;;;;6.03;1.27;;;;;;;;;;4939903;29;20303;-81
2022/06/19 06:38:54;;;;;;;1.17;1.10;;;;;;;;;;4954107;29;20201;-81
2022/06/19 06:41:22;;;;;;;1.70;1.60;;;;;;;;;;4937466;29;20254;-81
2022/06/19 06:43:50;;;;;;;5.17;1.83;;;;;;;;;;4951892;28;20285;-81
2022/06/19 06:46:21;;;;;;;0.90;0.90;;;;;;;;;;4959408;28;20209;-82
2022/06/19 06:48:50;;;;;;;5.43;1.77;;;;;;;;;;4942339;29;20206;-81
2022/06/19 06:51:20;;;;;;;2.40;1.23;;;;;;;;;;4952199;28;20269;-81
2022/06/19 06:53:48;;;;;;;10.30;3.90;;;;;;;;;;4948982;29;20229;-81
2022/06/19 06:56:17;;;;;;;1.70;1.10;;;;;;;;;;4937657;29;20249;-81
2022/06/19 06:58:45;;;;;;;3.57;1.00;;;;;;;;;;4951919;29;20203;-81
2022/06/19 07:01:15;;;;;;;8.07;1.47;;;;;;;;;;4936860;29;20201;-81
2022/06/19 07:03:45;;;;;;;3.07;0.97;;;;;;;;;;4951872;28;20246;-81
2022/06/19 07:06:14;;;;;;;7.03;0.87;;;;;;;;;;4937069;29;20229;-81
2022/06/19 07:08:43;;;;;;;0.53;0.53;;;;;;;;;;4952165;28;20205;-81
2022/06/19 07:11:15;;;;;;;0.50;0.50;;;;;;;;;;4937349;29;20219;-82
2022/06/19 07:13:44;;;;;;;0.83;0.83;;;;;;;;;;4940886;29;20201;-81
2022/06/19 07:16:12;;;;;;;0.50;0.50;;;;;;;;;;4927451;29;20268;-81
2022/06/19 07:18:41;;;;;;;3.03;2.10;;;;;;;;;;4950325;29;20208;-81
2022/06/19 07:21:12;;;;;;;4.00;0.90;;;;;;;;;;4942462;29;20210;-81
2022/06/19 07:23:40;;;;;;;1.23;1.13;;;;;;;;;;4935495;29;20205;-81
2022/06/19 07:26:12;;;;;;;0.47;0.47;;;;;;;;;;4929336;29;20210;-82
2022/06/19 07:28:41;;;;;;;1.03;1.03;;;;;;;;;;4937886;29;20206;-81
2022/06/19 07:31:10;;;;;;;1.40;1.07;;;;;;;;;;4929721;29;20214;-81
2022/06/19 07:33:39;;;;;;;2.10;0.80;;;;;;;;;;4949199;29;20272;-81
2022/06/19 07:36:09;;;;;;;0.83;0.83;;;;;;;;;;4936576;29;20206;-81
2022/06/19 07:38:39;;;;;;;0.47;0.47;;;;;;;;;;4933633;29;20206;-81
2022/06/19 07:41:08;;;;;;;8.07;2.23;;;;;;;;;;4938574;29;20198;-80
2022/06/19 07:43:37;;;;;;;0.60;0.60;;;;;;;;;;4938745;29;20225;-81
2022/06/19 07:46:05;;;;;;;1.10;1.10;;;;;;;;;;4925221;29;20206;-81
2022/06/19 07:51:20;;;;;;;0.60;0.60;;;;;;;;;;4924217;29;20229;-81
2022/06/19 07:53:50;;;;;;;1.80;0.70;;;;;;;;;;4936426;29;20203;-81
2022/06/19 07:56:18;;;;;;;1.73;1.63;;;;;;;;;;4906020;29;20194;-81
2022/06/19 07:58:47;;;;;;;1.00;0.87;;;;;;;;;;4919134;29;20202;-81
2022/06/19 08:01:16;;;;;;;0.50;0.50;;;;;;;;;;4923967;29;20193;-81
2022/06/19 08:03:44;;;;;;;2.13;1.13;;;;;;;;;;4957207;28;20249;-81
2022/06/19 08:06:14;;;;;;;1.30;1.20;;;;;;;;;;4921378;29;20199;-81
2022/06/19 08:08:43;;;;;;;1.83;0.60;;;;;;;;;;4929145;29;20197;-81
2022/06/19 08:11:13;;;;;;;1.80;0.53;;;;;;;;;;4953411;29;20217;-81
2022/06/19 08:13:41;;;;;;;4.13;1.93;;;;;;;;;;4924714;29;20205;-81
2022/06/19 08:16:11;;;;;;;0.93;0.83;;;;;;;;;;4927409;29;20226;-81
2022/06/19 08:18:40;;;;;;;1.80;1.33;;;;;;;;;;4948175;29;20194;-81
2022/06/19 08:21:08;;;;;;;3.40;1.23;;;;;;;;;;4944998;29;20251;-81
2022/06/19 08:23:36;;;;;;;1.43;0.77;;;;;;;;;;4922228;29;20289;-82
2022/06/19 08:26:05;;;;;;;0.97;0.93;;;;;;;;;;4927886;29;20270;-81
2022/06/19 08:28:39;;;;;;;2.60;1.27;;;;;;;;;;4936343;29;20275;-81
2022/06/19 08:31:08;;;;;;;1.10;1.07;;;;;;;;;;4918976;29;20224;-81
2022/06/19 08:33:36;;;;;;;4.00;1.07;;;;;;;;;;4935591;29;20202;-81
2022/06/19 08:36:06;;;;;;;2.43;1.00;;;;;;;;;;4946752;29;20254;-81
2022/06/19 08:38:35;;;;;;;4.90;1.77;;;;;;;;;;4944590;29;20227;-81
2022/06/19 08:41:22;;;;;;;2.83;1.30;;;;;;;;;;4948043;28;20213;-81
2022/06/19 08:44:06;;;;;;;0.83;0.83;;;;;;;;;;4943698;29;20283;-81
2022/06/19 08:46:40;;;;;;;2.20;0.70;;;;;;;;;;4937099;29;20210;-81
2022/06/19 08:49:23;;;;;;;0.87;0.63;;;;;;;;;;4951961;29;20212;-81
2022/06/19 08:51:59;;;;;;;0.70;0.70;;;;;;;;;;4965280;28;20221;-82
2022/06/19 08:54:33;;;;;;;0.50;0.50;;;;;;;;;;4941729;29;20198;-82
2022/06/19 08:57:04;;;;;;;1.20;1.20;;;;;;;;;;4946927;29;20214;-81
2022/06/19 08:59:38;;;;;;;0.83;0.70;;;;;;;;;;4957181;29;20230;-82
2022/06/19 09:02:14;;;;;;;3.93;1.20;;;;;;;;;;4930129;29;20221;-81
2022/06/19 09:07:42;;;;;;;0.70;0.70;;;;;;;;;;4951439;29;20218;-80
2022/06/19 09:10:19;;;;;;;1.00;0.77;;;;;;;;;;4957177;28;20258;-82
2022/06/19 09:13:02;;;;;;;3.33;1.43;;;;;;;;;;4946786;29;20214;-82
2022/06/19 09:15:34;;;;;;;1.23;1.10;;;;;;;;;;4960139;28;20237;-86
2022/06/19 09:18:05;;;;;;;3.80;0.80;;;;;;;;;;4941129;29;20206;-87
2022/06/19 09:20:41;;;;;;;0.70;0.70;;;;;;;;;;4928057;29;20206;-84
2022/06/19 09:23:23;;;;;;;0.53;0.53;;;;;;;;;;4957970;29;20203;-84
2022/06/19 09:25:54;;;;;;;0.83;0.80;;;;;;;;;;4934109;29;20234;-85
2022/06/19 09:28:26;;;;;;;1.73;1.40;;;;;;;;;;4939206;29;20208;-83
2022/06/19 09:30:56;;;;;;;1.27;0.80;;;;;;;;;;4938923;29;20208;-85
2022/06/19 09:33:28;;;;;;;1.43;1.33;;;;;;;;;;4934681;29;20211;-85
2022/06/19 09:36:02;;;;;;;1.17;1.17;;;;;;;;;;4924880;29;20209;-85
2022/06/19 09:38:34;;;;;;;1.03;1.03;;;;;;;;;;4937597;29;20206;-85
2022/06/19 09:41:04;;;;;;;1.83;0.90;;;;;;;;;;4908895;29;20213;-85
2022/06/19 09:43:36;;;;;;;4.53;1.33;;;;;;;;;;4950811;28;20266;-85
2022/06/19 09:46:07;;;;;;;1.60;0.97;;;;;;;;;;4943013;29;20217;-86
2022/06/19 09:48:39;;;;;;;0.70;0.70;;;;;;;;;;4940704;29;20217;-85
2022/06/19 09:51:12;;;;;;;4.33;1.40;;;;;;;;;;4922423;29;20213;-86
2022/06/19 09:53:43;;;;;;;0.80;0.80;;;;;;;;;;4950322;29;20200;-85
2022/06/19 09:56:33;;;;;;;0.77;0.73;;;;;;;;;;4949970;29;20453;-85
2022/06/19 09:59:05;;;;;;;1.90;0.80;;;;;;;;;;4939101;29;20201;-82
2022/06/19 10:01:34;;;;;;;4.43;1.50;;;;;;;;;;4940355;29;20202;-83
2022/06/19 10:04:05;;;;;;;1.70;0.90;;;;;;;;;;4926943;29;20247;-83
2022/06/19 10:06:37;;;;;;;1.07;1.07;;;;;;;;;;4953009;29;20298;-84
2022/06/19 10:09:13;;;;;;;2.43;0.80;;;;;;;;;;4934298;29;20208;-89
2022/06/19 10:11:43;;;;;;;0.87;0.87;;;;;;;;;;4946480;29;20323;-81
2022/06/19 10:14:13;;;;;;;0.97;0.87;;;;;;;;;;4921393;29;20235;-89
2022/06/19 10:16:48;;;;;;;1.43;1.33;;;;;;;;;;4937126;29;20227;-80
2022/06/19 10:19:20;;;;;;;0.53;0.50;;;;;;;;;;4945614;29;20294;-80
2022/06/19 10:24:43;;;;;;;1.20;1.10;;;;;;;;;;4945216;29;20260;-85
2022/06/19 10:27:17;;;;;;;7.27;1.33;;;;;;;;;;4937746;29;20206;-83
2022/06/19 10:29:53;;;;;;;3.97;0.97;;;;;;;;;;4937464;29;20212;-91
2022/06/19 10:32:26;;;;;;;1.37;0.80;;;;;;;;;;4920843;29;20226;-83
2022/06/19 10:35:02;;;;;;;3.33;1.83;;;;;;;;;;4920856;29;20204;-82
2022/06/19 10:37:34;;;;;;;3.23;2.53;;;;;;;;;;4952583;28;20208;-84
2022/06/19 10:40:18;;;;;;;3.77;1.10;;;;;;;;;;4948074;29;20210;-83
2022/06/19 10:42:51;;;;;;;3.30;1.93;;;;;;;;;;4924019;29;20198;-83
2022/06/19 10:45:29;;;;;;;4.53;1.17;;;;;;;;;;4940186;29;20221;-83
2022/06/19 10:48:06;;;;;;;1.93;1.53;;;;;;;;;;4936286;29;20234;-82
2022/06/19 10:50:41;;;;;;;1.60;1.00;;;;;;;;;;4950819;29;20211;-82
2022/06/19 10:53:26;;;;;;;1.47;0.90;;;;;;;;;;4952204;28;20215;-83
2022/06/19 10:55:57;;;;;;;2.10;1.20;;;;;;;;;;4965568;28;20201;-82
2022/06/19 10:58:27;;;;;;;4.30;1.10;;;;;;;;;;4946074;29;20211;-83
2022/06/19 11:00:56;;;;;;;0.60;0.60;;;;;;;;;;4937313;29;20210;-82
2022/06/19 11:06:21;;;;;;;5.17;1.27;;;;;;;;;;4937239;29;20205;-82
2022/06/19 11:08:52;;;;;;;1.53;0.80;;;;;;;;;;4951914;28;20209;-83
2022/06/19 11:11:22;;;;;;;5.17;2.00;;;;;;;;;;4952043;28;20238;-83
2022/06/19 11:13:58;;;;;;;1.30;1.20;;;;;;;;;;4922848;29;20228;-83
2022/06/19 11:16:27;;;;;;;3.63;1.10;;;;;;;;;;4935794;29;20212;-84
2022/06/19 11:18:57;;;;;;;4.93;1.70;;;;;;;;;;4957683;28;20208;-83
2022/06/19 11:21:28;;;;;;;1.67;1.30;;;;;;;;;;4939257;29;20224;-83
2022/06/19 11:23:58;;;;;;;2.80;1.77;;;;;;;;;;4938897;29;20205;-83
2022/06/19 11:26:28;;;;;;;3.43;1.53;;;;;;;;;;4938971;29;20207;-83
2022/06/19 11:28:58;;;;;;;2.60;0.80;;;;;;;;;;4925278;29;20292;-83
2022/06/19 11:31:28;;;;;;;1.10;0.80;;;;;;;;;;4938881;29;20270;-83
2022/06/19 11:34:43;;;;;;;3.83;1.43;;;;;;;;;;4933783;29;20221;-83
2022/06/19 11:37:03;;;;;;;0.90;0.90;;;;;;;;;;4946168;29;20210;-83
2022/06/19 11:39:34;;;;;;;1.47;1.23;;;;;;;;;;4938870;29;20214;-83
2022/06/19 11:42:20;;;;;;;0.60;0.60;;;;;;;;;;4941919;29;20213;-83
2022/06/19 11:44:51;;;;;;;1.90;1.70;;;;;;;;;;4936466;29;20256;-83
2022/06/19 11:47:25;;;;;;;2.00;0.90;;;;;;;;;;4937159;29;20207;-83
2022/06/19 11:50:08;;;;;;;1.33;1.20;;;;;;;;;;4929457;29;20205;-83
2022/06/19 11:52:39;;;;;;;3.77;2.03;;;;;;;;;;4922840;29;20250;-84
2022/06/19 11:55:15;;;;;;;0.70;0.70;;;;;;;;;;4938486;29;20278;-83
2022/06/19 11:57:44;;;;;;;1.23;1.17;;;;;;;;;;4934804;29;20257;-84
2022/06/19 12:00:23;;;;;;;1.07;0.97;;;;;;;;;;4919566;29;20244;-84
2022/06/19 12:02:57;;;;;;;2.93;1.67;;;;;;;;;;4919041;29;20234;-83
2022/06/19 12:05:28;;;;;;;6.00;1.57;;;;;;;;;;4929815;29;20238;-83
2022/06/19 12:08:01;;;;;;;9.00;1.20;;;;;;;;;;4920712;29;20195;-84
2022/06/19 12:10:34;;;;;;;0.80;0.80;;;;;;;;;;4934816;29;20212;-83
2022/06/19 12:13:04;;;;;;;2.50;1.03;;;;;;;;;;4932546;29;20220;-84
2022/06/19 12:15:34;;;;;;;1.43;1.23;;;;;;;;;;4906546;29;20293;-84
2022/06/19 12:18:04;;;;;;;5.50;2.03;;;;;;;;;;4948487;29;20205;-84
2022/06/19 12:20:34;;;;;;;4.70;2.00;;;;;;;;;;4932745;29;20271;-84
2022/06/19 12:23:08;;;;;;;2.90;1.30;;;;;;;;;;4936169;29;20214;-84
2022/06/19 12:25:39;;;;;;;1.93;0.83;;;;;;;;;;4932392;29;20236;-84
2022/06/19 12:28:11;;;;;;;6.83;1.73;;;;;;;;;;4919333;29;20220;-84
2022/06/19 12:30:43;;;;;;;1.93;1.60;;;;;;;;;;4919086;29;20197;-84
2022/06/19 12:33:15;;;;;;;3.00;0.80;;;;;;;;;;4919269;29;20215;-84
2022/06/19 12:35:46;;;;;;;1.83;1.37;;;;;;;;;;4918914;29;20204;-84
2022/06/19 12:38:17;;;;;;;7.90;2.00;;;;;;;;;;4936032;29;20277;-84
2022/06/19 12:40:54;;;;;;;1.77;1.40;;;;;;;;;;4964462;28;20217;-84
2022/06/19 12:43:25;;;;;;;1.60;1.27;;;;;;;;;;4936130;29;20232;-84
2022/06/19 12:45:56;;;;;;;2.40;1.10;;;;;;;;;;4964139;28;20215;-84
2022/06/19 12:48:43;;;;;;;5.30;1.93;;;;;;;;;;4934933;29;20203;-84
2022/06/19 12:51:14;;;;;;;3.30;1.27;;;;;;;;;;4950525;28;20202;-84
2022/06/19 12:53:58;;;;;;;4.73;1.60;;;;;;;;;;4919148;29;20233;-84
2022/06/19 12:56:34;;;;;;;0.53;0.53;;;;;;;;;;4923519;29;20219;-83
2022/06/19 12:59:17;;;;;;;1.20;1.20;;;;;;;;;;4924165;29;20232;-83
2022/06/19 13:01:53;;;;;;;2.47;1.03;;;;;;;;;;4935714;29;20214;-84
2022/06/19 13:04:28;;;;;;;0.77;0.77;;;;;;;;;;4934224;29;20242;-84
2022/06/19 13:07:02;;;;;;;1.23;0.80;;;;;;;;;;4928918;29;20219;-84
2022/06/19 13:09:38;;;;;;;0.67;0.67;;;;;;;;;;4934532;29;20217;-84
2022/06/19 13:12:14;;;;;;;1.23;1.20;;;;;;;;;;4931015;29;20215;-84
2022/06/19 13:14:58;;;;;;;2.63;1.10;;;;;;;;;;4950551;28;20226;-84
2022/06/19 13:17:27;;;;;;;3.93;1.33;;;;;;;;;;4946935;28;20220;-84
2022/06/19 13:20:01;;;;;;;2.80;1.10;;;;;;;;;;4924719;29;20208;-84
2022/06/19 13:22:33;;;;;;;1.07;1.07;;;;;;;;;;4946391;29;20206;-84
2022/06/19 13:25:06;;;;;;;1.10;0.80;;;;;;;;;;4943165;29;20202;-84
2022/06/19 13:27:43;;;;;;;1.70;0.90;;;;;;;;;;4946388;29;20212;-84
2022/06/19 13:30:18;;;;;;;0.70;0.70;;;;;;;;;;4940785;29;20214;-84
2022/06/19 13:32:51;;;;;;;5.90;2.47;;;;;;;;;;4941192;29;20270;-84
2022/06/19 13:35:25;;;;;;;3.93;1.47;;;;;;;;;;4927454;29;20219;-84
2022/06/19 13:37:59;;;;;;;0.87;0.87;;;;;;;;;;4949701;29;20206;-84
2022/06/19 13:40:33;;;;;;;2.67;1.17;;;;;;;;;;4937469;29;20214;-84
2022/06/19 13:43:11;;;;;;;1.50;0.90;;;;;;;;;;4942563;28;20216;-84
2022/06/19 13:45:47;;;;;;;3.83;1.67;;;;;;;;;;4924302;29;20213;-84
2022/06/19 13:48:18;;;;;;;0.80;0.80;;;;;;;;;;4931658;29;20211;-84
2022/06/19 13:50:48;;;;;;;1.90;1.10;;;;;;;;;;4953139;29;20210;-85
2022/06/19 13:53:21;;;;;;;3.20;1.77;;;;;;;;;;4932069;29;20206;-85
2022/06/19 13:55:58;;;;;;;0.80;0.80;;;;;;;;;;4938350;29;20223;-82
2022/06/19 13:58:35;;;;;;;3.00;0.90;;;;;;;;;;4921953;29;20215;-82
2022/06/19 14:01:09;;;;;;;6.03;1.60;;;;;;;;;;4937155;29;20207;-82
2022/06/19 14:07:18;;;;;;;2.47;1.10;;;;;;;;;;4871326;29;20304;-82
2022/06/19 14:09:52;;;;;;;6.93;1.60;;;;;;;;;;4867559;29;20230;-82
2022/06/19 14:12:23;;;;;;;4.70;1.17;;;;;;;;;;4916428;29;20285;-83
2022/06/19 14:14:55;;;;;;;0.90;0.90;;;;;;;;;;4925834;29;20243;-83
2022/06/19 14:17:26;;;;;;;2.30;0.97;;;;;;;;;;4937012;29;20210;-83
2022/06/19 14:20:01;;;;;;;6.63;1.93;;;;;;;;;;4921030;29;20240;-83
2022/06/19 14:22:33;;;;;;;2.27;1.43;;;;;;;;;;4920895;29;20204;-83
2022/06/19 14:25:06;;;;;;;1.53;1.43;;;;;;;;;;4921096;29;20192;-84
2022/06/19 14:27:49;;;;;;;2.67;0.83;;;;;;;;;;4936690;29;20216;-83
2022/06/19 14:30:20;;;;;;;3.30;1.23;;;;;;;;;;4935613;29;20225;-83
2022/06/19 14:32:51;;;;;;;1.00;1.00;;;;;;;;;;4929097;29;20216;-84
2022/06/19 14:35:26;;;;;;;2.83;1.47;;;;;;;;;;4925047;29;20217;-84
2022/06/19 14:37:56;;;;;;;6.17;2.13;;;;;;;;;;4952641;28;20208;-84
2022/06/19 14:40:41;;;;;;;5.63;1.67;;;;;;;;;;4951092;29;20208;-83
2022/06/19 14:43:19;;;;;;;12.73;1.77;;;;;;;;;;4946937;28;20201;-83
2022/06/19 14:45:53;;;;;;;7.70;1.60;;;;;;;;;;4936148;29;20274;-84
2022/06/19 14:48:28;;;;;;;6.17;1.60;;;;;;;;;;4936581;29;20213;-83
2022/06/19 14:51:00;;;;;;;7.07;1.63;;;;;;;;;;4950660;29;20200;-83
2022/06/19 14:53:37;;;;;;;5.37;1.67;;;;;;;;;;4920425;29;20206;-84
2022/06/19 14:56:18;;;;;;;1.33;1.20;;;;;;;;;;4936283;29;20216;-84
2022/06/19 14:58:49;;;;;;;2.07;0.83;;;;;;;;;;4932195;29;20236;-84
2022/06/19 15:01:24;;;;;;;11.10;1.93;;;;;;;;;;4934241;29;20252;-84
2022/06/19 15:03:58;;;;;;;1.67;1.10;;;;;;;;;;4920521;29;20339;-83
2022/06/19 15:06:38;;;;;;;4.87;1.03;;;;;;;;;;4933776;29;20216;-83
2022/06/19 15:09:08;;;;;;;4.40;3.00;;;;;;;;;;4920320;29;20266;-84
2022/06/19 15:11:39;;;;;;;0.80;0.80;;;;;;;;;;4928934;29;20210;-84
2022/06/19 15:14:30;;;;;;;3.87;1.37;;;;;;;;;;4936941;29;20215;-83
2022/06/19 15:17:01;;;;;;;2.07;1.97;;;;;;;;;;4950379;29;20200;-83
2022/06/19 15:19:37;;;;;;;6.90;1.93;;;;;;;;;;4951572;28;20208;-83
2022/06/19 15:22:07;;;;;;;3.67;1.67;;;;;;;;;;4949282;29;20203;-83
2022/06/19 15:24:54;;;;;;;4.57;1.73;;;;;;;;;;4919973;29;20225;-83
2022/06/19 15:27:27;;;;;;;1.80;1.57;;;;;;;;;;4929118;29;20203;-83